Startpagina
METAR-TAF:

METAR-TAF

Vliegvelden :

Tacna, Peru

breedte: 18-04S, lengte: 070-18W, hoogte: 468 m

Actueel weer

Dit bericht is 1 uur en het 4 minuten geleden gemaakt, om 12:00 UTC
Weinig wind
Temperatuur 22°C
Vochtigheid 73%
Druk 1012 hPa
Zicht 10 km of meer
Verspreide wolken op 8000 ft
Gebroken wolken op 25000 ft

METAR: SPTN 191200Z 00000KT 9999 SCT080 BKN250 22/17 Q1012 RMK TN20.0 PP000

Tijdstip: 08:04 (13:04 UTC)

Verwachting

Dit bericht is 2 uur en het 4 minuten geleden gemaakt, om 11:00 UTC
Verwachting geldig van 19 om 12 UTC tot 20 om 12 UTC
Wind 2 kt uit variabele richting
Zicht 10 km of meer
geen wolken onder 1500 m en geen cumulonimbus
Wijzigt naar
van 19 om 17 UTC tot 19 om 19 UTC
Wind 12 kt uit het zuidwesten
Wijzigt naar
van 20 om 02 UTC tot 20 om 04 UTC
Wind 2 kt uit het noordnoordwesten

TAF: SPTN 191100Z 1912/2012 VRB02KT CAVOK TX29/1919Z TN19/2010Z BECMG 1917/1919 23012KT BECMG 2002/2004 34002KT

Waarnemingen en weersverwachtingen van meer dan 4000 vliegvelden (METAR en TAF).

De beschikbare stations zijn de gele en rode punten op de kaart.

Ga met uw muis naar het station om de naam te zien.

Klik dan om waarnemingen en weersverwachtingen te zien.

kaart wijzigen: klik op de groene knoppen met een zwart kruis om in te zoomen, op de groene knop met een streepje om uit te zoomen of op de groene pijlen voor aangrenzende kaarten.


METAR-TAF: